createdAt,value
2022-08-23T00:02:23.466Z,3.47
2022-08-23T00:07:25.782Z,3.38
2022-08-23T00:12:31.489Z,4.03
2022-08-23T00:17:34.886Z,4.30
2022-08-23T00:22:38.209Z,4.57
2022-08-23T00:27:40.086Z,4.18
2022-08-23T00:32:42.548Z,4.73
2022-08-23T00:37:44.262Z,4.78
2022-08-23T00:43:28.011Z,4.80
2022-08-23T00:48:30.595Z,4.65
2022-08-23T00:53:36.514Z,4.93
2022-08-23T00:58:38.540Z,4.60
2022-08-23T01:03:43.185Z,5.30
2022-08-23T01:08:49.792Z,4.28
2022-08-23T01:13:57.602Z,4.32
2022-08-23T01:19:01.770Z,4.40
2022-08-23T01:24:04.782Z,4.50
2022-08-23T01:29:08.000Z,4.53
2022-08-23T01:34:12.225Z,4.97
2022-08-23T01:39:13.962Z,5.00
2022-08-23T01:44:15.810Z,4.50
2022-08-23T01:49:18.479Z,4.47
2022-08-23T01:54:21.156Z,4.80
2022-08-23T02:04:28.503Z,4.78
2022-08-23T02:09:31.785Z,4.73
2022-08-23T02:14:37.210Z,4.90
2022-08-23T02:19:44.130Z,4.80
2022-08-23T02:24:47.241Z,5.10
2022-08-23T02:29:50.129Z,5.43
2022-08-23T02:40:14.547Z,5.13
2022-08-23T02:45:17.312Z,5.45
2022-08-23T02:50:22.057Z,5.15
2022-08-23T02:55:24.166Z,5.40
2022-08-23T03:00:26.714Z,5.40
2022-08-23T03:05:28.707Z,5.20
2022-08-23T03:10:31.197Z,5.20
2022-08-23T03:15:35.770Z,5.65
2022-08-23T03:20:39.400Z,6.30
2022-08-23T03:25:41.201Z,4.93
2022-08-23T03:30:54.011Z,5.82
2022-08-23T03:36:01.368Z,3.30
2022-08-23T03:41:04.889Z,3.80
2022-08-23T03:46:08.038Z,4.77
2022-08-23T03:51:12.586Z,5.65
2022-08-23T03:56:33.118Z,5.50
2022-08-23T04:01:36.499Z,5.57
2022-08-23T04:06:38.455Z,5.93
2022-08-23T04:11:40.442Z,6.20
2022-08-23T04:16:42.141Z,6.03
2022-08-23T04:26:52.131Z,5.07
2022-08-23T04:31:54.266Z,5.37
2022-08-23T04:36:55.946Z,6.00
2022-08-23T04:42:16.620Z,5.90
2022-08-23T04:47:20.376Z,6.43
2022-08-23T04:52:23.369Z,6.40
2022-08-23T04:57:25.896Z,6.33
2022-08-23T05:02:27.867Z,6.03
2022-08-23T05:07:42.747Z,5.40
2022-08-23T05:12:47.072Z,5.68
2022-08-23T05:17:49.037Z,5.47
2022-08-23T05:22:51.921Z,5.50
2022-08-23T05:28:20.149Z,6.63
2022-08-23T05:33:21.906Z,6.50
2022-08-23T05:38:24.903Z,6.30
2022-08-23T05:43:28.110Z,5.10
2022-08-23T05:48:31.870Z,5.10
2022-08-23T05:53:38.003Z,7.18
2022-08-23T05:58:40.122Z,6.00
2022-08-23T06:03:42.288Z,8.17
2022-08-23T06:08:48.848Z,6.65
2022-08-23T06:13:59.535Z,6.05
2022-08-23T06:19:07.191Z,7.15
2022-08-23T06:24:39.639Z,7.97
2022-08-23T06:29:50.022Z,9.02
2022-08-23T06:35:27.793Z,7.47
2022-08-23T06:40:35.438Z,8.98
2022-08-23T06:46:12.877Z,10.03
2022-08-23T06:51:29.071Z,10.55
2022-08-23T06:56:49.725Z,8.75
2022-08-23T07:01:58.424Z,8.38
2022-08-23T07:07:23.441Z,8.98
2022-08-23T07:12:25.317Z,9.27
2022-08-23T07:17:27.146Z,8.50
2022-08-23T07:22:29.155Z,7.60
2022-08-23T07:27:31.532Z,6.93
2022-08-23T07:32:38.406Z,6.10
2022-08-23T07:37:57.431Z,5.38
2022-08-23T07:43:05.276Z,5.05
2022-08-23T07:48:09.154Z,4.88
2022-08-23T07:53:37.401Z,4.07
2022-08-23T07:58:41.131Z,3.33
2022-08-23T08:04:03.338Z,3.85
2022-08-23T08:09:27.991Z,3.65
2022-08-23T08:14:50.893Z,4.00
2022-08-23T08:20:16.807Z,3.83
2022-08-23T08:26:01.261Z,3.88
2022-08-23T08:31:04.521Z,3.58
2022-08-23T08:36:07.820Z,3.20
2022-08-23T08:41:25.483Z,3.30
2022-08-23T08:46:45.382Z,3.15
2022-08-23T08:51:53.268Z,3.33
2022-08-23T08:56:58.057Z,3.20
2022-08-23T09:02:01.108Z,3.03
2022-08-23T09:07:32.594Z,2.78
2022-08-23T09:12:49.744Z,3.00
2022-08-23T09:17:57.864Z,3.00
2022-08-23T09:23:17.627Z,3.20
2022-08-23T09:28:20.733Z,3.15
2022-08-23T09:33:26.153Z,3.30
2022-08-23T09:38:29.994Z,3.33
2022-08-23T09:43:48.317Z,3.00
2022-08-23T09:48:55.218Z,3.00
2022-08-23T09:54:20.756Z,3.15
2022-08-23T09:59:26.852Z,3.40
2022-08-23T10:04:47.221Z,3.10
2022-08-23T10:09:49.943Z,2.90
2022-08-23T10:14:52.155Z,2.83
2022-08-23T10:20:13.634Z,2.60
2022-08-23T10:25:31.386Z,2.90
2022-08-23T10:31:00.004Z,2.92
2022-08-23T10:36:33.687Z,2.57
2022-08-23T10:42:01.422Z,3.40
2022-08-23T10:47:28.100Z,2.85
2022-08-23T10:52:40.513Z,2.90
2022-08-23T10:57:46.565Z,2.55
2022-08-23T11:02:59.881Z,2.60
2022-08-23T11:08:36.792Z,3.00
2022-08-23T11:13:52.705Z,2.97
2022-08-23T11:18:55.514Z,3.00
2022-08-23T11:24:12.325Z,2.75
2022-08-23T11:29:23.919Z,2.50
2022-08-23T11:35:09.254Z,2.88
2022-08-23T11:40:18.008Z,2.45
2022-08-23T11:45:24.653Z,2.40
2022-08-23T11:50:43.437Z,2.58
2022-08-23T11:56:07.014Z,2.83
2022-08-23T12:01:12.259Z,2.40
2022-08-23T12:06:40.425Z,2.13
2022-08-23T12:11:57.492Z,2.00
2022-08-23T12:17:25.750Z,2.50
2022-08-23T12:22:54.135Z,2.00
2022-08-23T12:28:07.424Z,2.13
2022-08-23T12:33:40.402Z,2.13
2022-08-23T12:39:09.026Z,2.05
2022-08-23T12:44:10.837Z,1.80
2022-08-23T12:49:32.507Z,1.73
2022-08-23T12:54:42.584Z,1.90
2022-08-23T13:00:17.396Z,2.00
2022-08-23T13:05:31.898Z,1.80
2022-08-23T13:10:34.736Z,1.70
2022-08-23T13:15:45.707Z,1.88
2022-08-23T13:20:47.443Z,1.60
2022-08-23T13:25:49.110Z,1.73
2022-08-23T13:31:17.159Z,2.20
2022-08-23T13:36:21.841Z,1.80
2022-08-23T13:41:30.953Z,1.60
2022-08-23T13:46:34.190Z,1.70
2022-08-23T13:51:45.734Z,1.50
2022-08-23T13:56:58.895Z,1.63
2022-08-23T14:02:06.102Z,1.92
2022-08-23T14:07:09.265Z,1.60
2022-08-23T14:12:21.823Z,1.70
2022-08-23T14:17:24.105Z,1.73
2022-08-23T14:22:25.752Z,1.75
2022-08-23T14:32:30.117Z,1.63
2022-08-23T14:42:54.724Z,1.50
2022-08-23T14:47:56.429Z,1.60
2022-08-23T14:52:58.404Z,1.70
2022-08-23T14:58:00.114Z,1.30
2022-08-23T15:03:08.903Z,1.50
2022-08-23T15:08:11.457Z,1.40
2022-08-23T15:13:19.555Z,1.65
2022-08-23T15:18:24.245Z,1.40
2022-08-23T15:28:27.597Z,1.50
2022-08-23T15:33:30.767Z,1.48
2022-08-23T15:38:33.145Z,1.20
2022-08-23T15:43:36.140Z,1.20
2022-08-23T15:48:45.077Z,1.45
2022-08-23T15:53:47.510Z,1.30
2022-08-23T15:58:49.473Z,1.10
2022-08-23T16:03:51.900Z,1.00
2022-08-23T16:08:53.926Z,1.10
2022-08-23T16:13:55.821Z,1.05
2022-08-23T16:18:59.676Z,1.05
2022-08-23T16:24:02.007Z,0.98
2022-08-23T16:29:07.599Z,0.90
2022-08-23T16:34:14.090Z,0.80
2022-08-23T16:39:17.003Z,1.00
2022-08-23T16:44:18.716Z,0.95
2022-08-23T16:49:22.093Z,1.10
2022-08-23T16:54:23.789Z,0.80
2022-08-23T16:59:25.479Z,1.10
2022-08-23T17:04:30.473Z,1.20
2022-08-23T17:09:32.579Z,1.20
2022-08-23T17:14:34.243Z,1.30
2022-08-23T17:19:36.380Z,0.95
2022-08-23T17:24:38.224Z,1.23
2022-08-23T17:29:41.023Z,1.37
2022-08-23T17:34:43.113Z,1.38
2022-08-23T17:39:45.489Z,1.40
2022-08-23T17:49:49.445Z,1.48
2022-08-23T17:54:51.176Z,1.40
2022-08-23T17:59:53.187Z,1.43
2022-08-23T18:04:55.005Z,1.45
2022-08-23T18:09:57.564Z,1.30
2022-08-23T18:15:03.355Z,1.50
2022-08-23T18:20:08.043Z,1.40
2022-08-23T18:25:10.797Z,1.50
2022-08-23T18:30:12.871Z,1.33
2022-08-23T18:35:14.969Z,1.70
2022-08-23T18:40:17.174Z,1.50
2022-08-23T18:45:19.269Z,1.60
2022-08-23T18:50:23.504Z,1.77
2022-08-23T18:55:25.283Z,1.80
2022-08-23T19:00:27.005Z,1.88
2022-08-23T19:05:29.425Z,1.77
2022-08-23T19:10:44.343Z,1.52
2022-08-23T19:15:46.132Z,1.70
2022-08-23T19:20:48.587Z,1.80
2022-08-23T19:25:51.557Z,1.85
2022-08-23T19:30:53.243Z,2.10
2022-08-23T19:35:55.425Z,1.50
2022-08-23T19:41:00.243Z,1.30
2022-08-23T19:46:08.339Z,1.40
2022-08-23T19:51:13.081Z,1.80
2022-08-23T19:56:14.746Z,1.70
2022-08-23T20:01:16.548Z,2.50
2022-08-23T20:06:19.019Z,2.05
2022-08-23T20:16:23.820Z,2.00
2022-08-23T20:21:26.135Z,2.00
2022-08-23T20:26:43.507Z,2.00
2022-08-23T20:31:53.169Z,1.70
2022-08-23T20:36:56.302Z,2.10
2022-08-23T20:41:58.260Z,1.70
2022-08-23T20:47:03.006Z,1.83
2022-08-23T20:52:06.191Z,2.28
2022-08-23T21:02:09.435Z,1.98
2022-08-23T21:07:11.162Z,2.03
2022-08-23T21:12:13.553Z,1.90
2022-08-23T21:17:15.289Z,2.00
2022-08-23T21:22:17.053Z,1.98
2022-08-23T21:27:18.707Z,2.25
2022-08-23T21:32:20.698Z,2.30
2022-08-23T21:37:22.522Z,2.53
2022-08-23T21:42:26.019Z,2.47
2022-08-23T21:47:28.154Z,2.33
2022-08-23T21:52:30.056Z,2.57
2022-08-23T21:57:32.093Z,2.50
2022-08-23T22:02:33.790Z,2.23
2022-08-23T22:07:35.855Z,2.60
2022-08-23T22:12:38.977Z,2.40
2022-08-23T22:17:40.661Z,2.78
2022-08-23T22:22:43.507Z,3.10
2022-08-23T22:27:47.297Z,2.90
2022-08-23T22:32:49.939Z,2.92
2022-08-23T22:38:12.399Z,2.10
2022-08-23T22:43:13.281Z,2.42
2022-08-23T22:48:14.975Z,2.50
2022-08-23T22:53:17.930Z,2.70
2022-08-23T22:58:19.828Z,2.67
2022-08-23T23:03:21.728Z,2.53
2022-08-23T23:13:31.473Z,2.55
2022-08-23T23:18:33.925Z,2.40
2022-08-23T23:23:37.242Z,2.58
2022-08-23T23:28:39.126Z,2.72
2022-08-23T23:33:40.814Z,2.50
2022-08-23T23:38:42.718Z,2.58
2022-08-23T23:43:44.659Z,2.70
2022-08-23T23:48:48.428Z,2.73
2022-08-23T23:53:51.491Z,2.97
2022-08-23T23:58:55.333Z,3.00
